sensor_id;sensor_type;location;lat;lon;timestamp;pressure;altitude;pressure_sealevel;temperature;humidity
25947;BME280;13745;51.470;9.894;2023-01-28T00:01:05;100366.13;;;2.78;83.95
25947;BME280;13745;51.470;9.894;2023-01-28T00:03:51;100372.28;;;2.83;83.96
25947;BME280;13745;51.470;9.894;2023-01-28T00:06:36;100369.78;;;2.85;83.79
25947;BME280;13745;51.470;9.894;2023-01-28T00:09:21;100377.47;;;2.85;83.64
25947;BME280;13745;51.470;9.894;2023-01-28T00:12:06;100374.94;;;2.86;83.75
25947;BME280;13745;51.470;9.894;2023-01-28T00:14:51;100364.72;;;2.86;83.66
25947;BME280;13745;51.470;9.894;2023-01-28T00:17:38;100358.72;;;2.86;83.72
25947;BME280;13745;51.470;9.894;2023-01-28T00:20:23;100369.69;;;2.81;83.73
25947;BME280;13745;51.470;9.894;2023-01-28T00:23:08;100352.69;;;2.84;83.64
25947;BME280;13745;51.470;9.894;2023-01-28T00:25:53;100359.50;;;2.83;83.76
25947;BME280;13745;51.470;9.894;2023-01-28T00:28:39;100359.53;;;2.85;83.72
25947;BME280;13745;51.470;9.894;2023-01-28T00:31:25;100357.81;;;2.84;83.57
25947;BME280;13745;51.470;9.894;2023-01-28T00:34:12;100353.34;;;2.78;83.47
25947;BME280;13745;51.470;9.894;2023-01-28T00:36:58;100356.63;;;2.74;83.61
25947;BME280;13745;51.470;9.894;2023-01-28T00:39:43;100356.69;;;2.75;83.41
25947;BME280;13745;51.470;9.894;2023-01-28T00:42:28;100358.41;;;2.76;83.43
25947;BME280;13745;51.470;9.894;2023-01-28T00:45:13;100350.00;;;2.80;83.47
25947;BME280;13745;51.470;9.894;2023-01-28T00:47:58;100353.50;;;2.83;83.49
25947;BME280;13745;51.470;9.894;2023-01-28T00:50:44;100352.72;;;2.85;83.35
25947;BME280;13745;51.470;9.894;2023-01-28T00:53:31;100354.47;;;2.86;83.13
25947;BME280;13745;51.470;9.894;2023-01-28T00:56:17;100346.84;;;2.88;83.04
25947;BME280;13745;51.470;9.894;2023-01-28T00:59:03;100351.13;;;2.89;82.87
25947;BME280;13745;51.470;9.894;2023-01-28T01:01:48;100351.03;;;2.86;82.78
25947;BME280;13745;51.470;9.894;2023-01-28T01:04:34;100347.56;;;2.84;82.55
25947;BME280;13745;51.470;9.894;2023-01-28T01:07:23;100344.78;;;2.77;82.73
25947;BME280;13745;51.470;9.894;2023-01-28T01:10:24;100353.25;;;2.75;82.62
25947;BME280;13745;51.470;9.894;2023-01-28T01:13:09;100364.97;;;2.68;82.52
25947;BME280;13745;51.470;9.894;2023-01-28T01:16:02;100374.09;;;2.62;82.43
25947;BME280;13745;51.470;9.894;2023-01-28T01:18:49;100373.19;;;2.60;82.51
25947;BME280;13745;51.470;9.894;2023-01-28T01:21:35;100373.97;;;2.57;82.63
25947;BME280;13745;51.470;9.894;2023-01-28T01:24:21;100374.56;;;2.50;82.80
25947;BME280;13745;51.470;9.894;2023-01-28T01:27:08;100360.81;;;2.48;82.86
25947;BME280;13745;51.470;9.894;2023-01-28T01:29:53;100378.75;;;2.48;82.81
25947;BME280;13745;51.470;9.894;2023-01-28T01:32:38;100374.44;;;2.47;83.12
25947;BME280;13745;51.470;9.894;2023-01-28T01:35:24;100374.44;;;2.47;83.08
25947;BME280;13745;51.470;9.894;2023-01-28T01:38:09;100383.06;;;2.49;83.32
25947;BME280;13745;51.470;9.894;2023-01-28T01:40:57;100377.13;;;2.50;83.42
25947;BME280;13745;51.470;9.894;2023-01-28T01:43:47;100390.84;;;2.52;83.21
25947;BME280;13745;51.470;9.894;2023-01-28T01:46:37;100386.53;;;2.51;82.92
25947;BME280;13745;51.470;9.894;2023-01-28T01:49:26;100381.44;;;2.51;83.22
25947;BME280;13745;51.470;9.894;2023-01-28T01:52:15;100382.25;;;2.50;83.55
25947;BME280;13745;51.470;9.894;2023-01-28T01:55:06;100379.56;;;2.47;83.09
25947;BME280;13745;51.470;9.894;2023-01-28T01:57:55;100382.03;;;2.44;83.33
25947;BME280;13745;51.470;9.894;2023-01-28T02:00:42;100380.38;;;2.46;83.52
25947;BME280;13745;51.470;9.894;2023-01-28T02:03:30;100385.41;;;2.43;83.55
25947;BME280;13745;51.470;9.894;2023-01-28T02:06:19;100382.72;;;2.40;83.77
25947;BME280;13745;51.470;9.894;2023-01-28T02:09:06;100386.97;;;2.39;83.62
25947;BME280;13745;51.470;9.894;2023-01-28T02:11:55;100380.16;;;2.40;83.38
25947;BME280;13745;51.470;9.894;2023-01-28T02:14:46;100386.22;;;2.42;83.64
25947;BME280;13745;51.470;9.894;2023-01-28T02:17:33;100382.94;;;2.46;83.32
25947;BME280;13745;51.470;9.894;2023-01-28T02:20:20;100389.78;;;2.47;83.30
25947;BME280;13745;51.470;9.894;2023-01-28T02:23:28;100393.06;;;2.43;83.30
25947;BME280;13745;51.470;9.894;2023-01-28T02:26:26;100392.25;;;2.44;83.27
25947;BME280;13745;51.470;9.894;2023-01-28T02:29:24;100394.75;;;2.42;83.47
25947;BME280;13745;51.470;9.894;2023-01-28T02:32:13;100401.94;;;2.29;83.54
25947;BME280;13745;51.470;9.894;2023-01-28T02:35:01;100402.22;;;2.36;83.50
25947;BME280;13745;51.470;9.894;2023-01-28T02:37:53;100409.94;;;2.38;83.49
25947;BME280;13745;51.470;9.894;2023-01-28T02:40:42;100409.97;;;2.39;83.43
25947;BME280;13745;51.470;9.894;2023-01-28T02:43:44;100409.13;;;2.39;83.47
25947;BME280;13745;51.470;9.894;2023-01-28T02:46:36;100412.44;;;2.36;83.51
25947;BME280;13745;51.470;9.894;2023-01-28T02:49:42;100418.53;;;2.40;83.22
25947;BME280;13745;51.470;9.894;2023-01-28T02:52:33;100417.59;;;2.38;83.30
25947;BME280;13745;51.470;9.894;2023-01-28T02:55:45;100410.47;;;2.29;83.47
25947;BME280;13745;51.470;9.894;2023-01-28T02:58:36;100413.16;;;2.32;83.26
25947;BME280;13745;51.470;9.894;2023-01-28T03:01:27;100413.22;;;2.34;83.44
25947;BME280;13745;51.470;9.894;2023-01-28T03:04:19;100413.25;;;2.35;83.37
25947;BME280;13745;51.470;9.894;2023-01-28T03:07:08;100422.72;;;2.38;83.27
25947;BME280;13745;51.470;9.894;2023-01-28T03:09:55;100424.31;;;2.34;83.41
25947;BME280;13745;51.470;9.894;2023-01-28T03:12:43;100416.63;;;2.34;83.45
25947;BME280;13745;51.470;9.894;2023-01-28T03:15:47;100421.91;;;2.39;83.25
25947;BME280;13745;51.470;9.894;2023-01-28T03:18:50;100423.78;;;2.20;83.46
25947;BME280;13745;51.470;9.894;2023-01-28T03:21:55;100419.72;;;2.25;83.57
25947;BME280;13745;51.470;9.894;2023-01-28T03:25:01;100425.81;;;2.29;83.47
25947;BME280;13745;51.470;9.894;2023-01-28T03:28:07;100423.31;;;2.31;83.53
25947;BME280;13745;51.470;9.894;2023-01-28T03:31:16;100417.56;;;2.36;83.41
25947;BME280;13745;51.470;9.894;2023-01-28T03:34:22;100422.72;;;2.38;83.09
25947;BME280;13745;51.470;9.894;2023-01-28T03:37:26;100423.63;;;2.40;83.48
25947;BME280;13745;51.470;9.894;2023-01-28T03:40:32;100421.25;;;2.44;83.35
25947;BME280;13745;51.470;9.894;2023-01-28T03:43:18;100429.75;;;2.43;83.08
25947;BME280;13745;51.470;9.894;2023-01-28T03:46:05;100428.16;;;2.47;83.07
25947;BME280;13745;51.470;9.894;2023-01-28T03:48:50;100431.69;;;2.49;83.06
25947;BME280;13745;51.470;9.894;2023-01-28T03:51:35;100439.41;;;2.50;82.95
25947;BME280;13745;51.470;9.894;2023-01-28T03:54:21;100427.53;;;2.52;82.79
25947;BME280;13745;51.470;9.894;2023-01-28T03:57:07;100436.13;;;2.54;82.72
25947;BME280;13745;51.470;9.894;2023-01-28T03:59:53;100435.19;;;2.52;82.53
25947;BME280;13745;51.470;9.894;2023-01-28T04:02:39;100431.78;;;2.52;82.84
25947;BME280;13745;51.470;9.894;2023-01-28T04:05:28;100425.94;;;2.56;82.91
25947;BME280;13745;51.470;9.894;2023-01-28T04:08:15;100435.38;;;2.57;82.75
25947;BME280;13745;51.470;9.894;2023-01-28T04:11:13;100429.50;;;2.60;82.87
25947;BME280;13745;51.470;9.894;2023-01-28T04:14:04;100427.84;;;2.62;82.63
25947;BME280;13745;51.470;9.894;2023-01-28T04:17:02;100437.22;;;2.61;82.87
25947;BME280;13745;51.470;9.894;2023-01-28T04:19:49;100432.91;;;2.60;82.70
25947;BME280;13745;51.470;9.894;2023-01-28T04:22:35;100432.00;;;2.58;82.76
25947;BME280;13745;51.470;9.894;2023-01-28T04:25:25;100429.41;;;2.57;82.73
25947;BME280;13745;51.470;9.894;2023-01-28T04:28:12;100421.59;;;2.53;82.92
25947;BME280;13745;51.470;9.894;2023-01-28T04:30:57;100427.63;;;2.56;82.74
25947;BME280;13745;51.470;9.894;2023-01-28T04:34:05;100426.06;;;2.59;82.50
25947;BME280;13745;51.470;9.894;2023-01-28T04:37:10;100423.56;;;2.61;82.64
25947;BME280;13745;51.470;9.894;2023-01-28T04:40:21;100431.22;;;2.61;82.72
25947;BME280;13745;51.470;9.894;2023-01-28T04:43:22;100422.69;;;2.60;82.77
25947;BME280;13745;51.470;9.894;2023-01-28T04:46:11;100423.59;;;2.62;82.75
25947;BME280;13745;51.470;9.894;2023-01-28T04:49:10;100420.22;;;2.63;82.62
25947;BME280;13745;51.470;9.894;2023-01-28T04:52:14;100426.16;;;2.62;82.72
25947;BME280;13745;51.470;9.894;2023-01-28T04:55:22;100430.47;;;2.63;82.54
25947;BME280;13745;51.470;9.894;2023-01-28T04:58:07;100432.16;;;2.63;82.32
25947;BME280;13745;51.470;9.894;2023-01-28T05:00:55;100436.56;;;2.67;82.35
25947;BME280;13745;51.470;9.894;2023-01-28T05:03:41;100434.88;;;2.67;82.41
25947;BME280;13745;51.470;9.894;2023-01-28T05:06:32;100430.63;;;2.68;82.51
25947;BME280;13745;51.470;9.894;2023-01-28T05:09:23;100438.47;;;2.72;82.30
25947;BME280;13745;51.470;9.894;2023-01-28T05:12:08;100437.66;;;2.73;82.32
25947;BME280;13745;51.470;9.894;2023-01-28T05:14:55;100442.59;;;2.69;82.42
25947;BME280;13745;51.470;9.894;2023-01-28T05:17:43;100440.00;;;2.67;82.48
25947;BME280;13745;51.470;9.894;2023-01-28T05:20:30;100446.69;;;2.64;82.44
25947;BME280;13745;51.470;9.894;2023-01-28T05:23:15;100444.06;;;2.62;82.40
25947;BME280;13745;51.470;9.894;2023-01-28T05:26:08;100447.41;;;2.60;82.45
25947;BME280;13745;51.470;9.894;2023-01-28T05:28:53;100442.38;;;2.63;82.08
25947;BME280;13745;51.470;9.894;2023-01-28T05:31:38;100434.63;;;2.60;81.89
25947;BME280;13745;51.470;9.894;2023-01-28T05:34:25;100444.84;;;2.60;81.58
25947;BME280;13745;51.470;9.894;2023-01-28T05:37:12;100452.53;;;2.60;81.46
25947;BME280;13745;51.470;9.894;2023-01-28T05:39:57;100446.59;;;2.61;81.35
25947;BME280;13745;51.470;9.894;2023-01-28T05:42:42;100450.88;;;2.62;81.19
25947;BME280;13745;51.470;9.894;2023-01-28T05:45:40;100446.59;;;2.61;81.47
25947;BME280;13745;51.470;9.894;2023-01-28T05:48:31;100449.88;;;2.57;81.03
25947;BME280;13745;51.470;9.894;2023-01-28T05:51:37;100450.56;;;2.52;80.82
25947;BME280;13745;51.470;9.894;2023-01-28T05:54:23;100450.56;;;2.52;80.61
25947;BME280;13745;51.470;9.894;2023-01-28T05:57:08;100445.50;;;2.54;80.59
25947;BME280;13745;51.470;9.894;2023-01-28T05:59:53;100446.50;;;2.58;80.43
25947;BME280;13745;51.470;9.894;2023-01-28T06:02:38;100453.28;;;2.57;80.20
25947;BME280;13745;51.470;9.894;2023-01-28T06:05:23;100463.44;;;2.56;80.12
25947;BME280;13745;51.470;9.894;2023-01-28T06:08:10;100465.91;;;2.52;80.27
25947;BME280;13745;51.470;9.894;2023-01-28T06:10:55;100456.44;;;2.50;79.90
25947;BME280;13745;51.470;9.894;2023-01-28T06:13:42;100480.34;;;2.50;80.03
25947;BME280;13745;51.470;9.894;2023-01-28T06:16:46;100481.91;;;2.47;79.91
25947;BME280;13745;51.470;9.894;2023-01-28T06:19:43;100474.16;;;2.45;79.83
25947;BME280;13745;51.470;9.894;2023-01-28T06:22:28;100472.38;;;2.43;79.80
25947;BME280;13745;51.470;9.894;2023-01-28T06:25:14;100477.31;;;2.38;79.69
25947;BME280;13745;51.470;9.894;2023-01-28T06:27:59;100483.25;;;2.37;79.64
25947;BME280;13745;51.470;9.894;2023-01-28T06:30:47;100473.88;;;2.38;79.48
25947;BME280;13745;51.470;9.894;2023-01-28T06:33:32;100479.06;;;2.39;79.50
25947;BME280;13745;51.470;9.894;2023-01-28T06:36:17;100489.13;;;2.35;79.28
25947;BME280;13745;51.470;9.894;2023-01-28T06:39:02;100487.34;;;2.32;79.16
25947;BME280;13745;51.470;9.894;2023-01-28T06:41:49;100494.19;;;2.33;78.85
25947;BME280;13745;51.470;9.894;2023-01-28T06:44:34;100495.00;;;2.32;79.02
25947;BME280;13745;51.470;9.894;2023-01-28T06:47:19;100499.41;;;2.36;79.23
25947;BME280;13745;51.470;9.894;2023-01-28T06:50:04;100497.03;;;2.41;78.89
25947;BME280;13745;51.470;9.894;2023-01-28T06:52:50;100497.97;;;2.43;78.53
25947;BME280;13745;51.470;9.894;2023-01-28T06:55:35;100499.72;;;2.44;78.63
25947;BME280;13745;51.470;9.894;2023-01-28T06:58:21;100498.78;;;2.42;78.31
25947;BME280;13745;51.470;9.894;2023-01-28T07:01:07;100497.91;;;2.41;78.54
25947;BME280;13745;51.470;9.894;2023-01-28T07:03:52;100498.88;;;2.45;78.23
25947;BME280;13745;51.470;9.894;2023-01-28T07:06:37;100500.88;;;2.52;78.16
25947;BME280;13745;51.470;9.894;2023-01-28T07:09:22;100511.38;;;2.60;78.08
25947;BME280;13745;51.470;9.894;2023-01-28T07:12:07;100503.00;;;2.64;78.03
25947;BME280;13745;51.470;9.894;2023-01-28T07:14:53;100500.59;;;2.68;77.66
25947;BME280;13745;51.470;9.894;2023-01-28T07:17:39;100502.53;;;2.74;77.49
25947;BME280;13745;51.470;9.894;2023-01-28T07:20:24;100492.34;;;2.75;77.46
25947;BME280;13745;51.470;9.894;2023-01-28T07:23:09;100506.09;;;2.79;77.37
25947;BME280;13745;51.470;9.894;2023-01-28T07:25:59;100499.25;;;2.78;76.85
25947;BME280;13745;51.470;9.894;2023-01-28T07:28:45;100496.78;;;2.81;77.12
25947;BME280;13745;51.470;9.894;2023-01-28T07:31:31;100498.44;;;2.79;76.53
25947;BME280;13745;51.470;9.894;2023-01-28T07:34:16;100494.06;;;2.76;76.84
25947;BME280;13745;51.470;9.894;2023-01-28T07:37:02;100506.09;;;2.79;76.87
25947;BME280;13745;51.470;9.894;2023-01-28T07:39:47;100501.16;;;2.84;76.81
25947;BME280;13745;51.470;9.894;2023-01-28T07:42:35;100503.88;;;2.88;76.89
25947;BME280;13745;51.470;9.894;2023-01-28T07:45:23;100498.94;;;2.93;76.87
25947;BME280;13745;51.470;9.894;2023-01-28T07:48:11;100491.34;;;2.96;76.51
25947;BME280;13745;51.470;9.894;2023-01-28T07:50:57;100491.50;;;3.00;76.60
25947;BME280;13745;51.470;9.894;2023-01-28T07:53:43;100504.38;;;3.02;76.40
25947;BME280;13745;51.470;9.894;2023-01-28T07:56:29;100501.09;;;3.06;76.16
25947;BME280;13745;51.470;9.894;2023-01-28T07:59:14;100503.78;;;3.09;76.14
25947;BME280;13745;51.470;9.894;2023-01-28T08:01:59;100498.69;;;3.10;76.17
25947;BME280;13745;51.470;9.894;2023-01-28T08:04:46;100507.25;;;3.11;75.46
25947;BME280;13745;51.470;9.894;2023-01-28T08:07:31;100501.44;;;3.15;75.56
25947;BME280;13745;51.470;9.894;2023-01-28T08:10:17;100509.22;;;3.18;75.37
25947;BME280;13745;51.470;9.894;2023-01-28T08:13:03;100499.88;;;3.20;75.40
25947;BME280;13745;51.470;9.894;2023-01-28T08:15:48;100511.81;;;3.20;75.65
25947;BME280;13745;51.470;9.894;2023-01-28T08:18:34;100515.41;;;3.25;75.63
25947;BME280;13745;51.470;9.894;2023-01-28T08:21:20;100507.72;;;3.25;75.49
25947;BME280;13745;51.470;9.894;2023-01-28T08:24:06;100509.56;;;3.29;75.55
25947;BME280;13745;51.470;9.894;2023-01-28T08:26:51;100519.16;;;3.34;75.51
25947;BME280;13745;51.470;9.894;2023-01-28T08:29:36;100525.16;;;3.35;75.20
25947;BME280;13745;51.470;9.894;2023-01-28T08:32:21;100520.84;;;3.34;75.17
25947;BME280;13745;51.470;9.894;2023-01-28T08:35:06;100525.97;;;3.34;75.14
25947;BME280;13745;51.470;9.894;2023-01-28T08:37:53;100523.47;;;3.35;74.93
25947;BME280;13745;51.470;9.894;2023-01-28T08:40:39;100533.06;;;3.41;74.95
25947;BME280;13745;51.470;9.894;2023-01-28T08:43:24;100529.03;;;3.48;75.31
25947;BME280;13745;51.470;9.894;2023-01-28T08:46:09;100526.81;;;3.58;74.67
25947;BME280;13745;51.470;9.894;2023-01-28T08:48:54;100524.34;;;3.61;74.81
25947;BME280;13745;51.470;9.894;2023-01-28T08:51:39;100532.28;;;3.69;74.74
25947;BME280;13745;51.470;9.894;2023-01-28T08:54:25;100537.50;;;3.72;74.57
25947;BME280;13745;51.470;9.894;2023-01-28T08:57:11;100524.84;;;3.77;74.42
25947;BME280;13745;51.470;9.894;2023-01-28T08:59:55;100529.25;;;3.81;74.22
25947;BME280;13745;51.470;9.894;2023-01-28T09:02:40;100532.88;;;3.87;74.49
25947;BME280;13745;51.470;9.894;2023-01-28T09:05:26;100544.13;;;3.91;74.18
25947;BME280;13745;51.470;9.894;2023-01-28T09:08:13;100551.94;;;3.95;74.19
25947;BME280;13745;51.470;9.894;2023-01-28T09:10:59;100555.53;;;4.01;74.22
25947;BME280;13745;51.470;9.894;2023-01-28T09:13:44;100563.44;;;4.07;73.98
25947;BME280;13745;51.470;9.894;2023-01-28T09:16:29;100565.22;;;4.09;74.02
25947;BME280;13745;51.470;9.894;2023-01-28T09:19:14;100580.56;;;4.08;73.52
25947;BME280;13745;51.470;9.894;2023-01-28T09:22:02;100578.63;;;4.01;73.85
25947;BME280;13745;51.470;9.894;2023-01-28T09:24:47;100578.31;;;3.91;73.67
25947;BME280;13745;51.470;9.894;2023-01-28T09:27:33;100587.72;;;3.91;73.57
25947;BME280;13745;51.470;9.894;2023-01-28T09:30:19;100594.78;;;3.98;73.21
25947;BME280;13745;51.470;9.894;2023-01-28T09:33:05;100595.44;;;3.92;72.97
25947;BME280;13745;51.470;9.894;2023-01-28T09:35:50;100600.41;;;3.88;73.37
25947;BME280;13745;51.470;9.894;2023-01-28T09:38:35;100595.19;;;3.85;73.30
25947;BME280;13745;51.470;9.894;2023-01-28T09:41:26;100605.50;;;3.86;73.12
25947;BME280;13745;51.470;9.894;2023-01-28T09:44:24;100604.78;;;3.90;73.03
25947;BME280;13745;51.470;9.894;2023-01-28T09:47:18;100602.31;;;3.93;73.13
25947;BME280;13745;51.470;9.894;2023-01-28T09:50:11;100604.75;;;3.89;73.24
25947;BME280;13745;51.470;9.894;2023-01-28T09:53:03;100610.63;;;3.86;73.05
25947;BME280;13745;51.470;9.894;2023-01-28T09:55:52;100601.28;;;3.88;72.98
25947;BME280;13745;51.470;9.894;2023-01-28T09:58:40;100603.66;;;3.82;72.51
25947;BME280;13745;51.470;9.894;2023-01-28T10:01:35;100598.38;;;3.78;72.67
25947;BME280;13745;51.470;9.894;2023-01-28T10:04:31;100609.44;;;3.77;72.56
25947;BME280;13745;51.470;9.894;2023-01-28T10:07:28;100613.66;;;3.75;72.45
25947;BME280;13745;51.470;9.894;2023-01-28T10:10:19;100614.31;;;3.69;72.63
25947;BME280;13745;51.470;9.894;2023-01-28T10:13:19;100620.66;;;3.55;72.67
25947;BME280;13745;51.470;9.894;2023-01-28T10:16:18;100622.03;;;3.45;72.96
25947;BME280;13745;51.470;9.894;2023-01-28T10:19:13;100620.22;;;3.43;73.17
25947;BME280;13745;51.470;9.894;2023-01-28T10:22:02;100622.78;;;3.43;73.04
25947;BME280;13745;51.470;9.894;2023-01-28T10:24:52;100620.13;;;3.40;73.13
25947;BME280;13745;51.470;9.894;2023-01-28T10:27:41;100613.31;;;3.40;73.17
25947;BME280;13745;51.470;9.894;2023-01-28T10:30:29;100613.25;;;3.38;73.09
25947;BME280;13745;51.470;9.894;2023-01-28T10:33:18;100613.47;;;3.45;72.96
25947;BME280;13745;51.470;9.894;2023-01-28T10:36:07;100606.09;;;3.54;72.67
25947;BME280;13745;51.470;9.894;2023-01-28T10:38:53;100601.84;;;3.54;72.71
25947;BME280;13745;51.470;9.894;2023-01-28T10:41:38;100607.19;;;3.60;72.61
25947;BME280;13745;51.470;9.894;2023-01-28T10:44:29;100608.31;;;3.69;72.21
25947;BME280;13745;51.470;9.894;2023-01-28T10:47:24;100601.84;;;3.80;72.05
25947;BME280;13745;51.470;9.894;2023-01-28T10:50:14;100608.97;;;3.88;71.91
25947;BME280;13745;51.470;9.894;2023-01-28T10:53:04;100612.38;;;3.87;72.04
25947;BME280;13745;51.470;9.894;2023-01-28T10:55:52;100609.22;;;3.96;71.66
25947;BME280;13745;51.470;9.894;2023-01-28T10:58:47;100605.22;;;4.04;71.52
25947;BME280;13745;51.470;9.894;2023-01-28T11:01:39;100616.69;;;4.14;71.99
25947;BME280;13745;51.470;9.894;2023-01-28T11:04:27;100611.06;;;4.26;71.77
25947;BME280;13745;51.470;9.894;2023-01-28T11:07:17;100607.72;;;4.28;70.95
25947;BME280;13745;51.470;9.894;2023-01-28T11:10:24;100608.53;;;4.27;70.69
25947;BME280;13745;51.470;9.894;2023-01-28T11:13:15;100609.53;;;4.31;71.29
25947;BME280;13745;51.470;9.894;2023-01-28T11:16:02;100599.97;;;4.27;70.95
25947;BME280;13745;51.470;9.894;2023-01-28T11:18:51;100604.91;;;4.20;71.28
25947;BME280;13745;51.470;9.894;2023-01-28T11:21:37;100588.00;;;4.27;71.06
25947;BME280;13745;51.470;9.894;2023-01-28T11:24:25;100586.47;;;4.32;70.94
25947;BME280;13745;51.470;9.894;2023-01-28T11:27:15;100591.44;;;4.28;70.84
25947;BME280;13745;51.470;9.894;2023-01-28T11:30:02;100584.63;;;4.28;70.88
25947;BME280;13745;51.470;9.894;2023-01-28T11:32:54;100579.47;;;4.28;70.56
25947;BME280;13745;51.470;9.894;2023-01-28T11:35:39;100585.72;;;4.36;71.00
25947;BME280;13745;51.470;9.894;2023-01-28T11:38:25;100585.06;;;4.42;70.69
25947;BME280;13745;51.470;9.894;2023-01-28T11:41:13;100573.16;;;4.45;70.63
25947;BME280;13745;51.470;9.894;2023-01-28T11:44:12;100564.72;;;4.48;70.31
25947;BME280;13745;51.470;9.894;2023-01-28T11:47:18;100568.16;;;4.48;70.49
25947;BME280;13745;51.470;9.894;2023-01-28T11:50:21;100566.69;;;4.57;70.38
25947;BME280;13745;51.470;9.894;2023-01-28T11:53:20;100576.97;;;4.57;70.38
25947;BME280;13745;51.470;9.894;2023-01-28T11:56:18;100572.56;;;4.54;69.82
25947;BME280;13745;51.470;9.894;2023-01-28T11:59:27;100559.75;;;4.54;70.16
25947;BME280;13745;51.470;9.894;2023-01-28T12:02:27;100573.44;;;4.55;70.19
25947;BME280;13745;51.470;9.894;2023-01-28T12:05:32;100573.69;;;4.34;70.93
25947;BME280;13745;51.470;9.894;2023-01-28T12:08:25;100574.41;;;4.30;70.84
25947;BME280;13745;51.470;9.894;2023-01-28T12:11:24;100576.75;;;4.22;70.57
25947;BME280;13745;51.470;9.894;2023-01-28T12:14:32;100579.19;;;4.19;70.56
25947;BME280;13745;51.470;9.894;2023-01-28T12:17:28;100584.94;;;4.12;70.83
25947;BME280;13745;51.470;9.894;2023-01-28T12:20:19;100573.06;;;4.14;70.54
25947;BME280;13745;51.470;9.894;2023-01-28T12:23:24;100574.59;;;4.09;70.54
25947;BME280;13745;51.470;9.894;2023-01-28T12:26:16;100575.44;;;4.08;70.47
25947;BME280;13745;51.470;9.894;2023-01-28T12:29:17;100568.19;;;3.96;70.79
25947;BME280;13745;51.470;9.894;2023-01-28T12:32:27;100573.28;;;3.94;70.60
25947;BME280;13745;51.470;9.894;2023-01-28T12:35:31;100569.28;;;4.03;70.31
25947;BME280;13745;51.470;9.894;2023-01-28T12:38:26;100571.25;;;4.11;70.02
25947;BME280;13745;51.470;9.894;2023-01-28T12:41:17;100575.63;;;4.14;70.05
25947;BME280;13745;51.470;9.894;2023-01-28T12:44:04;100578.19;;;4.14;70.05
25947;BME280;13745;51.470;9.894;2023-01-28T12:46:52;100585.06;;;4.15;70.35
25947;BME280;13745;51.470;9.894;2023-01-28T12:49:44;100572.16;;;4.13;70.00
25947;BME280;13745;51.470;9.894;2023-01-28T12:52:34;100565.50;;;4.18;69.87
25947;BME280;13745;51.470;9.894;2023-01-28T12:55:34;100565.59;;;4.21;69.55
25947;BME280;13745;51.470;9.894;2023-01-28T12:58:36;100567.28;;;4.21;69.54
25947;BME280;13745;51.470;9.894;2023-01-28T13:01:25;100553.34;;;4.13;69.76
25947;BME280;13745;51.470;9.894;2023-01-28T13:04:18;100546.31;;;4.06;69.99
25947;BME280;13745;51.470;9.894;2023-01-28T13:07:14;100546.97;;;4.00;69.67
25947;BME280;13745;51.470;9.894;2023-01-28T13:10:04;100547.09;;;4.05;69.76
25947;BME280;13745;51.470;9.894;2023-01-28T13:12:52;100539.50;;;4.08;69.35
25947;BME280;13745;51.470;9.894;2023-01-28T13:15:39;100541.34;;;4.12;69.57
25947;BME280;13745;51.470;9.894;2023-01-28T13:18:31;100528.72;;;4.18;69.33
25947;BME280;13745;51.470;9.894;2023-01-28T13:21:29;100520.94;;;4.15;69.35
25947;BME280;13745;51.470;9.894;2023-01-28T13:24:29;100537.94;;;4.13;69.37
25947;BME280;13745;51.470;9.894;2023-01-28T13:27:22;100542.16;;;4.11;69.55
25947;BME280;13745;51.470;9.894;2023-01-28T13:30:22;100534.94;;;3.98;69.27
25947;BME280;13745;51.470;9.894;2023-01-28T13:33:27;100539.03;;;3.92;69.75
25947;BME280;13745;51.470;9.894;2023-01-28T13:36:23;100539.34;;;4.03;69.46
25947;BME280;13745;51.470;9.894;2023-01-28T13:39:16;100536.13;;;4.09;69.61
25947;BME280;13745;51.470;9.894;2023-01-28T13:42:21;100520.81;;;4.12;69.08
25947;BME280;13745;51.470;9.894;2023-01-28T13:45:19;100510.78;;;4.19;69.33
25947;BME280;13745;51.470;9.894;2023-01-28T13:48:17;100499.84;;;4.25;68.87
25947;BME280;13745;51.470;9.894;2023-01-28T13:51:15;100508.50;;;4.29;69.36
25947;BME280;13745;51.470;9.894;2023-01-28T13:54:03;100505.22;;;4.33;69.10
25947;BME280;13745;51.470;9.894;2023-01-28T13:57:04;100492.44;;;4.34;69.07
25947;BME280;13745;51.470;9.894;2023-01-28T14:00:04;100493.16;;;4.30;68.54
25947;BME280;13745;51.470;9.894;2023-01-28T14:03:24;100474.78;;;4.16;68.78
25947;BME280;13745;51.470;9.894;2023-01-28T14:09:32;100467.72;;;4.09;68.33
25947;BME280;13745;51.470;9.894;2023-01-28T14:12:52;100477.81;;;4.32;68.07
25947;BME280;13745;51.470;9.894;2023-01-28T14:16:08;100477.09;;;4.66;67.78
25947;BME280;13745;51.470;9.894;2023-01-28T14:18:59;100481.28;;;4.94;67.85
25947;BME280;13745;51.470;9.894;2023-01-28T14:21:45;100493.75;;;5.12;67.34
25947;BME280;13745;51.470;9.894;2023-01-28T14:24:30;100502.53;;;5.20;67.29
25947;BME280;13745;51.470;9.894;2023-01-28T14:27:21;100503.53;;;5.25;66.83
25947;BME280;13745;51.470;9.894;2023-01-28T14:30:17;100500.81;;;5.20;67.04
25947;BME280;13745;51.470;9.894;2023-01-28T14:33:08;100505.94;;;5.19;66.50
25947;BME280;13745;51.470;9.894;2023-01-28T14:35:55;100497.28;;;5.15;66.68
25947;BME280;13745;51.470;9.894;2023-01-28T14:38:42;100505.75;;;5.13;66.50
25947;BME280;13745;51.470;9.894;2023-01-28T14:41:28;100501.41;;;5.10;66.70
25947;BME280;13745;51.470;9.894;2023-01-28T14:44:24;100509.91;;;5.07;66.77
25947;BME280;13745;51.470;9.894;2023-01-28T14:47:22;100508.28;;;5.11;66.35
25947;BME280;13745;51.470;9.894;2023-01-28T14:50:27;100502.19;;;5.06;66.45
25947;BME280;13745;51.470;9.894;2023-01-28T14:53:30;100494.22;;;4.97;66.75
25947;BME280;13745;51.470;9.894;2023-01-28T14:56:32;100506.09;;;4.93;66.38
25947;BME280;13745;51.470;9.894;2023-01-28T14:59:22;100521.47;;;4.92;67.19
25947;BME280;13745;51.470;9.894;2023-01-28T15:02:17;100531.53;;;4.84;66.95
25947;BME280;13745;51.470;9.894;2023-01-28T15:05:10;100535.56;;;4.76;66.93
25947;BME280;13745;51.470;9.894;2023-01-28T15:07:59;100536.22;;;4.69;66.78